TimeCST,TemperatureF,Dew PointF,Humidity,Sea Level PressureIn,VisibilityMPH,Wind Direction,Wind SpeedMPH,Gust SpeedMPH,PrecipitationIn,Events,Conditions,WindDirDegrees,DateUTC
12:15 AM,46.4,26.6,46,29.84,10.0,South,9.2,-,N/A,,Clear,190,2012-12-18 06:15:00
12:35 AM,46.4,26.6,46,29.82,10.0,South,8.1,-,N/A,,Clear,190,2012-12-18 06:35:00
12:55 AM,46.4,26.6,46,29.82,10.0,South,9.2,-,N/A,,Clear,180,2012-12-18 06:55:00
1:15 AM,46.4,26.6,46,29.81,10.0,SSW,6.9,-,N/A,,Clear,200,2012-12-18 07:15:00
1:35 AM,46.4,26.6,46,29.81,10.0,SSW,6.9,-,N/A,,Clear,210,2012-12-18 07:35:00
1:55 AM,48.2,26.6,43,29.81,10.0,SW,8.1,-,N/A,,Clear,220,2012-12-18 07:55:00
2:15 AM,48.2,28.4,46,29.81,10.0,SW,8.1,-,N/A,,Clear,230,2012-12-18 08:15:00
2:35 AM,50.0,28.4,43,29.81,10.0,SW,8.1,-,N/A,,Clear,220,2012-12-18 08:35:00
2:55 AM,50.0,28.4,43,29.81,10.0,SW,6.9,-,N/A,,Clear,230,2012-12-18 08:55:00
3:15 AM,50.0,28.4,43,29.82,10.0,WSW,6.9,-,N/A,,Clear,240,2012-12-18 09:15:00
3:35 AM,48.2,28.4,46,29.81,10.0,SW,4.6,-,N/A,,Clear,230,2012-12-18 09:35:00
3:55 AM,48.2,28.4,46,29.81,10.0,SW,5.8,-,N/A,,Clear,220,2012-12-18 09:55:00
4:15 AM,46.4,28.4,50,29.80,10.0,WSW,5.8,-,N/A,,Clear,240,2012-12-18 10:15:00
4:35 AM,46.4,28.4,50,29.80,10.0,WSW,9.2,-,N/A,,Clear,240,2012-12-18 10:35:00
4:55 AM,48.2,28.4,46,29.80,10.0,SW,9.2,-,N/A,,Clear,230,2012-12-18 10:55:00
5:15 AM,50.0,28.4,43,29.80,10.0,SW,12.7,-,N/A,,Clear,230,2012-12-18 11:15:00
5:35 AM,48.2,28.4,46,29.81,10.0,SW,11.5,-,N/A,,Clear,220,2012-12-18 11:35:00
6:15 AM,46.4,28.4,50,29.81,10.0,SW,9.2,-,N/A,,Clear,220,2012-12-18 12:15:00
6:35 AM,46.4,28.4,50,29.81,10.0,SW,10.4,-,N/A,,Clear,230,2012-12-18 12:35:00
6:55 AM,46.4,28.4,50,29.81,10.0,SW,10.4,-,N/A,,Clear,230,2012-12-18 12:55:00
7:15 AM,46.4,28.4,50,29.82,10.0,SW,8.1,-,N/A,,Clear,230,2012-12-18 13:15:00
7:35 AM,44.6,28.4,53,29.82,10.0,SW,6.9,-,N/A,,Clear,230,2012-12-18 13:35:00
7:55 AM,44.6,28.4,53,29.83,10.0,SW,5.8,-,N/A,,Clear,220,2012-12-18 13:55:00
8:15 AM,46.4,28.4,50,29.83,10.0,SW,9.2,-,N/A,,Clear,220,2012-12-18 14:15:00
8:35 AM,51.8,28.4,41,29.84,10.0,SW,12.7,-,N/A,,Clear,230,2012-12-18 14:35:00
8:55 AM,53.6,28.4,38,29.85,10.0,SW,11.5,-,N/A,,Clear,230,2012-12-18 14:55:00
9:15 AM,55.4,28.4,36,29.86,10.0,WSW,10.4,-,N/A,,Clear,240,2012-12-18 15:15:00
11:15 AM,69.8,28.4,21,29.86,10.0,West,9.2,-,N/A,,Clear,260,2012-12-18 17:15:00
11:35 AM,71.6,28.4,20,29.85,10.0,West,9.2,-,N/A,,Clear,280,2012-12-18 17:35:00
11:55 AM,71.6,28.4,20,29.85,10.0,West,9.2,-,N/A,,Clear,260,2012-12-18 17:55:00
12:15 PM,73.4,28.4,19,29.83,10.0,West,8.1,-,N/A,,Clear,270,2012-12-18 18:15:00
12:35 PM,73.4,26.6,18,29.82,10.0,WSW,8.1,-,N/A,,Clear,250,2012-12-18 18:35:00
12:55 PM,73.4,26.6,18,29.81,10.0,WSW,8.1,-,N/A,,Clear,250,2012-12-18 18:55:00
1:35 PM,77.0,26.6,16,29.79,10.0,WSW,11.5,-,N/A,,Clear,240,2012-12-18 19:35:00
1:55 PM,77.0,26.6,16,29.79,10.0,SW,8.1,-,N/A,,Clear,230,2012-12-18 19:55:00
2:15 PM,77.0,26.6,16,29.78,10.0,WSW,11.5,-,N/A,,Clear,240,2012-12-18 20:15:00
3:35 PM,77.0,26.6,16,29.76,10.0,West,8.1,-,N/A,,Clear,260,2012-12-18 21:35:00
4:15 PM,77.0,24.8,14,29.75,10.0,West,5.8,-,N/A,,Clear,260,2012-12-18 22:15:00
4:35 PM,77.0,26.6,16,29.75,10.0,West,6.9,-,N/A,,Clear,260,2012-12-18 22:35:00
8:15 PM,57.2,28.4,33,29.76,10.0,SE,6.9,-,N/A,,Clear,140,2012-12-19 02:15:00
8:35 PM,55.4,28.4,36,29.76,10.0,Calm,Calm,-,N/A,,Clear,0,2012-12-19 02:35:00
8:55 PM,57.2,28.4,33,29.76,10.0,SE,8.1,-,N/A,,Clear,140,2012-12-19 02:55:00
9:15 PM,55.4,28.4,36,29.75,10.0,SE,10.4,-,N/A,,Clear,140,2012-12-19 03:15:00
9:35 PM,53.6,28.4,38,29.74,10.0,SE,10.4,-,N/A,,Clear,140,2012-12-19 03:35:00
9:55 PM,51.8,28.4,41,29.74,10.0,Calm,Calm,-,N/A,,Clear,0,2012-12-19 03:55:00
10:15 PM,53.6,28.4,38,29.74,10.0,SSE,11.5,-,N/A,,Clear,150,2012-12-19 04:15:00
10:35 PM,59.0,26.6,29,29.73,10.0,SSE,13.8,-,N/A,,Clear,160,2012-12-19 04:35:00
10:55 PM,59.0,26.6,29,29.73,10.0,South,11.5,-,N/A,,Clear,170,2012-12-19 04:55:00
11:15 PM,60.8,26.6,27,29.73,10.0,South,12.7,-,N/A,,Clear,190,2012-12-19 05:15:00
11:35 PM,62.6,26.6,26,29.73,10.0,South,13.8,-,N/A,,Clear,180,2012-12-19 05:35:00
11:55 PM,62.6,26.6,26,29.73,10.0,South,15.0,-,N/A,,Clear,190,2012-12-19 05:55:00